createdAt,value
2018-06-20T00:02:00.666Z,10.63
2018-06-20T00:04:29.673Z,13.20
2018-06-20T00:06:58.329Z,9.23
2018-06-20T00:09:27.028Z,12.63
2018-06-20T00:11:55.709Z,9.67
2018-06-20T00:14:24.430Z,15.10
2018-06-20T00:16:53.377Z,12.93
2018-06-20T00:19:22.283Z,13.10
2018-06-20T00:21:51.218Z,11.43
2018-06-20T00:24:20.218Z,15.17
2018-06-20T00:26:49.150Z,10.10
2018-06-20T00:29:18.137Z,10.03
2018-06-20T00:31:47.273Z,10.70
2018-06-20T00:34:16.273Z,10.53
2018-06-20T00:36:45.317Z,13.13
2018-06-20T00:39:14.303Z,12.07
2018-06-20T00:41:43.277Z,12.03
2018-06-20T00:44:12.273Z,15.67
2018-06-20T00:46:41.193Z,15.47
2018-06-20T00:49:10.249Z,11.47
2018-06-20T00:51:39.211Z,12.10
2018-06-20T00:54:08.177Z,10.27
2018-06-20T00:56:37.094Z,10.97
2018-06-20T00:59:06.297Z,10.47
2018-06-20T01:01:35.259Z,11.13
2018-06-20T01:04:04.306Z,9.97
2018-06-20T01:06:33.354Z,9.67
2018-06-20T01:09:02.366Z,9.70
2018-06-20T01:11:31.586Z,12.43
2018-06-20T01:14:00.983Z,8.53
2018-06-20T01:16:29.956Z,11.97
2018-06-20T01:18:58.906Z,14.03
2018-06-20T01:21:28.002Z,10.87
2018-06-20T01:23:57.057Z,15.27
2018-06-20T01:26:25.990Z,12.37
2018-06-20T01:28:54.918Z,11.50
2018-06-20T01:31:23.912Z,10.50
2018-06-20T01:33:52.971Z,10.43
2018-06-20T01:36:22.063Z,10.83
2018-06-20T01:38:51.212Z,11.03
2018-06-20T01:41:20.205Z,12.80
2018-06-20T01:43:49.067Z,13.27
2018-06-20T01:46:18.105Z,13.20
2018-06-20T01:48:47.121Z,10.17
2018-06-20T01:51:16.068Z,11.97
2018-06-20T01:53:45.052Z,8.60
2018-06-20T01:56:14.078Z,13.67
2018-06-20T01:58:43.015Z,10.37
2018-06-20T02:01:11.953Z,9.60
2018-06-20T02:03:40.874Z,9.83
2018-06-20T02:06:09.792Z,13.70
2018-06-20T02:08:38.736Z,12.23
2018-06-20T02:11:07.713Z,9.73
2018-06-20T02:13:36.650Z,7.60
2018-06-20T02:16:05.423Z,10.10
2018-06-20T02:18:33.904Z,10.30
2018-06-20T02:21:02.656Z,11.37
2018-06-20T02:23:31.587Z,9.57
2018-06-20T02:26:00.518Z,11.53
2018-06-20T02:28:29.297Z,9.63
2018-06-20T02:30:58.009Z,9.43
2018-06-20T02:33:26.957Z,8.47
2018-06-20T02:35:55.954Z,9.13
2018-06-20T02:38:24.896Z,8.47
2018-06-20T02:40:53.907Z,8.60
2018-06-20T02:43:22.803Z,11.30
2018-06-20T02:45:51.730Z,8.33
2018-06-20T02:48:21.490Z,11.00
2018-06-20T02:50:50.469Z,9.27
2018-06-20T02:53:19.403Z,9.07
2018-06-20T02:55:49.205Z,8.93
2018-06-20T02:58:18.206Z,7.97
2018-06-20T03:00:47.114Z,8.47
2018-06-20T03:03:16.144Z,6.73
2018-06-20T03:05:45.056Z,6.60
2018-06-20T03:08:14.175Z,9.97
2018-06-20T03:10:43.250Z,9.43
2018-06-20T03:13:12.406Z,13.10
2018-06-20T03:15:41.395Z,9.30
2018-06-20T03:18:10.459Z,9.37
2018-06-20T03:20:39.446Z,12.43
2018-06-20T03:23:08.431Z,12.97
2018-06-20T03:25:37.393Z,10.67
2018-06-20T03:28:06.367Z,11.00
2018-06-20T03:30:36.397Z,9.43
2018-06-20T03:33:05.572Z,10.53
2018-06-20T03:35:34.598Z,9.83
2018-06-20T03:38:03.563Z,10.60
2018-06-20T03:40:32.666Z,10.20
2018-06-20T03:43:01.587Z,10.80
2018-06-20T03:45:30.697Z,10.57
2018-06-20T03:47:59.622Z,13.40
2018-06-20T03:50:28.635Z,16.40
2018-06-20T03:52:57.605Z,11.17
2018-06-20T03:55:26.526Z,11.37
2018-06-20T03:57:55.489Z,13.30
2018-06-20T04:00:24.469Z,12.47
2018-06-20T04:02:53.474Z,10.60
2018-06-20T04:05:22.464Z,12.83
2018-06-20T04:07:51.398Z,8.80
2018-06-20T04:10:20.050Z,10.57
2018-06-20T04:12:48.876Z,8.90
2018-06-20T04:15:17.787Z,14.90
2018-06-20T04:17:46.745Z,9.30
2018-06-20T04:20:15.821Z,13.93
2018-06-20T04:22:44.980Z,11.13
2018-06-20T04:25:13.922Z,7.73
2018-06-20T04:27:42.965Z,7.30
2018-06-20T04:30:12.055Z,13.10
2018-06-20T04:32:40.990Z,12.60
2018-06-20T04:35:09.660Z,8.47
2018-06-20T04:37:38.468Z,9.40
2018-06-20T04:40:07.462Z,8.37
2018-06-20T04:42:36.152Z,6.90
2018-06-20T04:45:04.894Z,11.13
2018-06-20T04:47:33.886Z,8.20
2018-06-20T04:50:03.034Z,9.03
2018-06-20T04:52:31.965Z,8.60
2018-06-20T04:55:00.918Z,7.50
2018-06-20T04:57:29.817Z,6.37
2018-06-20T04:59:58.751Z,15.87
2018-06-20T05:02:27.852Z,7.60
2018-06-20T05:04:56.762Z,9.03
2018-06-20T05:07:25.426Z,6.07
2018-06-20T05:09:54.124Z,9.60
2018-06-20T05:12:23.125Z,6.63
2018-06-20T05:14:52.226Z,9.67
2018-06-20T05:17:21.261Z,6.03
2018-06-20T05:19:50.190Z,10.73
2018-06-20T05:22:19.130Z,8.87
2018-06-20T05:24:48.169Z,7.67
2018-06-20T05:27:17.216Z,6.30
2018-06-20T05:29:46.165Z,5.90
2018-06-20T05:32:15.065Z,6.10
2018-06-20T05:34:44.062Z,5.17
2018-06-20T05:37:13.070Z,6.53
2018-06-20T05:39:41.974Z,7.83
2018-06-20T05:42:10.938Z,8.53
2018-06-20T05:44:39.891Z,5.33
2018-06-20T05:47:09.062Z,7.50
2018-06-20T05:49:38.026Z,5.87
2018-06-20T05:52:07.085Z,5.97
2018-06-20T05:54:35.853Z,7.83
2018-06-20T05:57:04.764Z,5.07
2018-06-20T05:59:34.240Z,6.00
2018-06-20T06:02:03.387Z,5.07
2018-06-20T06:04:32.310Z,11.33
2018-06-20T06:07:01.257Z,6.37
2018-06-20T06:09:30.183Z,5.97
2018-06-20T06:11:59.220Z,7.37
2018-06-20T06:14:28.291Z,9.90
2018-06-20T06:16:57.332Z,10.83
2018-06-20T06:19:26.414Z,9.23
2018-06-20T06:21:55.293Z,9.20
2018-06-20T06:24:24.402Z,9.47
2018-06-20T06:26:53.310Z,9.27
2018-06-20T06:29:22.409Z,9.90
2018-06-20T06:31:51.294Z,8.97
2018-06-20T06:34:20.344Z,8.07
2018-06-20T06:36:49.278Z,7.97
2018-06-20T06:39:18.254Z,8.73
2018-06-20T06:41:47.343Z,6.43
2018-06-20T06:44:16.425Z,8.93
2018-06-20T06:46:45.360Z,8.33
2018-06-20T06:49:14.356Z,7.30
2018-06-20T06:51:43.316Z,9.87
2018-06-20T06:54:12.317Z,6.00
2018-06-20T06:56:41.253Z,8.10
2018-06-20T06:59:10.177Z,7.57
2018-06-20T07:01:39.163Z,3.77
2018-06-20T07:04:08.164Z,6.80
2018-06-20T07:06:37.241Z,5.07
2018-06-20T07:09:07.246Z,7.20
2018-06-20T07:11:36.329Z,5.43
2018-06-20T07:14:05.231Z,6.17
2018-06-20T07:16:34.244Z,4.60
2018-06-20T07:19:02.929Z,4.97
2018-06-20T07:21:31.648Z,7.03
2018-06-20T07:24:00.734Z,9.00
2018-06-20T07:26:29.669Z,4.60
2018-06-20T07:28:58.787Z,6.93
2018-06-20T07:31:28.292Z,6.00
2018-06-20T07:33:57.361Z,3.30
2018-06-20T07:36:26.420Z,7.20
2018-06-20T07:38:55.306Z,5.17
2018-06-20T07:41:24.371Z,4.30
2018-06-20T07:43:53.025Z,4.93
2018-06-20T07:46:21.754Z,5.03
2018-06-20T07:48:50.764Z,4.80
2018-06-20T07:51:19.984Z,7.30
2018-06-20T07:53:48.974Z,5.10
2018-06-20T07:56:18.019Z,5.27
2018-06-20T07:58:46.999Z,3.73
2018-06-20T08:01:27.151Z,3.67
2018-06-20T08:03:56.187Z,4.03
2018-06-20T08:06:25.208Z,2.83
2018-06-20T08:08:54.025Z,4.20
2018-06-20T08:11:22.945Z,3.63
2018-06-20T08:13:52.049Z,5.30
2018-06-20T08:16:20.970Z,5.23
2018-06-20T08:18:49.984Z,4.50
2018-06-20T08:21:18.866Z,4.13
2018-06-20T08:23:47.792Z,2.43
2018-06-20T08:26:16.718Z,2.70
2018-06-20T08:28:45.814Z,2.17
2018-06-20T08:31:14.746Z,3.80
2018-06-20T08:33:43.651Z,4.43
2018-06-20T08:36:12.628Z,2.67
2018-06-20T08:38:41.560Z,2.93
2018-06-20T08:41:10.506Z,2.77
2018-06-20T08:43:39.562Z,3.40
2018-06-20T08:46:08.537Z,4.33
2018-06-20T08:48:37.590Z,6.73
2018-06-20T08:51:06.534Z,3.17
2018-06-20T08:53:35.472Z,6.13
2018-06-20T08:56:05.592Z,3.77
2018-06-20T08:58:34.562Z,3.10
2018-06-20T09:01:03.581Z,5.30
2018-06-20T09:03:34.760Z,4.00
2018-06-20T09:06:04.147Z,4.17
2018-06-20T09:08:33.115Z,3.50
2018-06-20T09:11:02.133Z,3.50
2018-06-20T09:13:31.116Z,3.10
2018-06-20T09:16:00.182Z,3.23
2018-06-20T09:18:29.198Z,3.93
2018-06-20T09:20:57.825Z,3.13
2018-06-20T09:23:26.554Z,3.53
2018-06-20T09:25:55.229Z,3.13
2018-06-20T09:28:23.940Z,3.73
2018-06-20T09:30:53.103Z,5.97
2018-06-20T09:33:22.020Z,2.90
2018-06-20T09:35:50.780Z,6.73
2018-06-20T09:38:19.678Z,3.27
2018-06-20T09:40:48.678Z,2.80
2018-06-20T09:43:17.598Z,3.93
2018-06-20T09:45:46.797Z,4.13
2018-06-20T09:48:15.706Z,3.07
2018-06-20T09:50:44.848Z,2.90
2018-06-20T09:53:13.758Z,2.83
2018-06-20T09:55:42.741Z,3.70
2018-06-20T09:58:11.904Z,3.33
2018-06-20T10:00:40.886Z,5.87
2018-06-20T10:03:09.788Z,3.10
2018-06-20T10:05:38.721Z,2.47
2018-06-20T10:08:07.634Z,2.63
2018-06-20T10:10:36.681Z,2.77
2018-06-20T10:13:05.662Z,3.63
2018-06-20T10:15:34.650Z,2.10
2018-06-20T10:18:03.746Z,3.23
2018-06-20T10:20:32.787Z,5.10
2018-06-20T10:23:01.731Z,2.97
2018-06-20T10:25:30.642Z,3.67
2018-06-20T10:27:59.533Z,2.97
2018-06-20T10:30:28.463Z,5.83
2018-06-20T10:32:57.388Z,3.70
2018-06-20T10:35:26.328Z,5.67
2018-06-20T10:37:55.421Z,2.80
2018-06-20T10:40:24.338Z,2.07
2018-06-20T10:42:53.287Z,3.33
2018-06-20T10:45:22.218Z,4.37
2018-06-20T10:47:51.207Z,3.97
2018-06-20T10:50:20.324Z,2.87
2018-06-20T10:52:49.280Z,4.87
2018-06-20T10:55:18.208Z,4.70
2018-06-20T10:57:47.121Z,3.80
2018-06-20T11:00:16.097Z,3.40
2018-06-20T11:02:45.021Z,3.80
2018-06-20T11:05:13.977Z,2.27
2018-06-20T11:07:42.954Z,3.57
2018-06-20T11:10:12.074Z,2.80
2018-06-20T11:12:41.332Z,3.13
2018-06-20T11:15:10.555Z,5.00
2018-06-20T11:17:39.466Z,3.37
2018-06-20T11:20:08.450Z,3.97
2018-06-20T11:22:37.448Z,2.93
2018-06-20T11:25:06.547Z,3.20
2018-06-20T11:27:35.635Z,2.27
2018-06-20T11:30:04.615Z,4.43
2018-06-20T11:32:33.550Z,3.20
2018-06-20T11:35:02.800Z,2.57
2018-06-20T11:37:31.918Z,2.77
2018-06-20T11:40:01.010Z,4.30
2018-06-20T11:42:30.097Z,2.67
2018-06-20T11:44:59.193Z,3.70
2018-06-20T11:47:27.865Z,2.30
2018-06-20T11:49:56.698Z,3.50
2018-06-20T11:52:25.570Z,4.63
2018-06-20T11:54:54.521Z,2.23
2018-06-20T11:57:23.558Z,4.30
2018-06-20T11:59:52.696Z,3.30
2018-06-20T12:02:21.835Z,2.77
2018-06-20T12:04:50.998Z,2.00
2018-06-20T12:07:20.114Z,5.10
2018-06-20T12:09:48.997Z,3.50
2018-06-20T12:12:18.040Z,3.63
2018-06-20T12:14:47.098Z,3.33
2018-06-20T12:17:16.158Z,3.67
2018-06-20T12:19:45.378Z,5.97
2018-06-20T12:22:14.575Z,4.03
2018-06-20T12:24:43.533Z,3.43
2018-06-20T12:27:12.447Z,2.57
2018-06-20T12:29:41.553Z,4.47
2018-06-20T12:32:10.504Z,4.20
2018-06-20T12:34:39.875Z,4.30
2018-06-20T12:37:08.815Z,3.53
2018-06-20T12:39:46.633Z,2.10
2018-06-20T12:42:16.127Z,4.37
2018-06-20T12:44:45.050Z,4.77
2018-06-20T12:47:13.975Z,6.03
2018-06-20T12:49:43.151Z,3.53
2018-06-20T12:52:12.094Z,4.43
2018-06-20T12:54:41.390Z,1.80
2018-06-20T12:57:10.454Z,3.40
2018-06-20T12:59:42.737Z,2.83
2018-06-20T13:02:11.976Z,2.60
2018-06-20T13:04:41.069Z,3.57
2018-06-20T13:07:09.743Z,3.60
2018-06-20T13:09:38.247Z,4.30
2018-06-20T13:12:07.053Z,1.80
2018-06-20T13:14:36.051Z,1.60
2018-06-20T13:17:05.415Z,1.60
2018-06-20T13:19:34.394Z,3.30
2018-06-20T13:22:03.462Z,5.27
2018-06-20T13:24:32.477Z,3.10
2018-06-20T13:27:02.581Z,2.30
2018-06-20T13:29:33.125Z,2.73
2018-06-20T13:32:03.815Z,3.77
2018-06-20T13:34:33.226Z,2.83
2018-06-20T13:37:03.230Z,1.60
2018-06-20T13:39:33.422Z,3.03
2018-06-20T13:42:02.855Z,3.23
2018-06-20T13:44:31.861Z,2.43
2018-06-20T13:47:00.826Z,2.03
2018-06-20T13:49:29.744Z,3.20
2018-06-20T13:51:58.883Z,2.30
2018-06-20T13:54:27.945Z,3.77
2018-06-20T13:56:56.916Z,2.93
2018-06-20T13:59:26.308Z,3.53
2018-06-20T14:01:55.546Z,2.87
2018-06-20T14:04:24.203Z,2.40
2018-06-20T14:06:53.153Z,2.03
2018-06-20T14:09:22.354Z,4.33
2018-06-20T14:11:51.287Z,2.60
2018-06-20T14:14:20.302Z,2.67
2018-06-20T14:16:49.621Z,3.47
2018-06-20T14:19:18.596Z,2.30
2018-06-20T14:21:47.406Z,6.00
2018-06-20T14:24:16.705Z,1.37
2018-06-20T14:26:45.986Z,4.23
2018-06-20T14:29:15.191Z,1.33
2018-06-20T14:31:44.084Z,3.60
2018-06-20T14:34:12.869Z,1.87
2018-06-20T14:36:41.538Z,4.43
2018-06-20T14:39:10.505Z,4.00
2018-06-20T14:41:39.472Z,6.10
2018-06-20T14:44:08.551Z,5.63
2018-06-20T14:46:37.494Z,1.93
2018-06-20T14:49:06.970Z,1.60
2018-06-20T14:51:35.922Z,6.10
2018-06-20T14:54:05.034Z,1.97
2018-06-20T14:56:34.101Z,4.20
2018-06-20T14:59:03.263Z,2.47
2018-06-20T15:01:32.211Z,4.73
2018-06-20T15:04:01.277Z,6.33
2018-06-20T15:06:30.223Z,2.10
2018-06-20T15:08:59.118Z,2.63
2018-06-20T15:11:28.059Z,2.00
2018-06-20T15:13:56.792Z,2.20
2018-06-20T15:16:25.486Z,3.40
2018-06-20T15:18:54.528Z,3.07
2018-06-20T15:21:23.637Z,1.73
2018-06-20T15:23:52.616Z,2.77
2018-06-20T15:26:21.810Z,3.33
2018-06-20T15:28:50.844Z,3.07
2018-06-20T15:31:19.855Z,4.93
2018-06-20T15:33:48.766Z,3.70
2018-06-20T15:36:17.744Z,3.60
2018-06-20T15:38:46.836Z,3.93
2018-06-20T15:41:15.846Z,3.93
2018-06-20T15:43:44.877Z,1.80
2018-06-20T15:46:13.918Z,3.30
2018-06-20T15:48:43.118Z,2.13
2018-06-20T15:51:12.583Z,6.10
2018-06-20T15:53:41.624Z,1.83
2018-06-20T15:56:10.598Z,4.60
2018-06-20T15:58:39.671Z,1.83
2018-06-20T16:01:08.634Z,4.23
2018-06-20T16:03:37.642Z,1.97
2018-06-20T16:06:06.831Z,3.40
2018-06-20T16:08:35.863Z,2.70
2018-06-20T16:11:05.310Z,12.50
2018-06-20T16:13:34.976Z,4.30
2018-06-20T16:16:04.166Z,2.23
2018-06-20T16:18:33.346Z,2.30
2018-06-20T16:21:02.294Z,3.27
2018-06-20T16:23:31.242Z,3.13
2018-06-20T16:26:00.252Z,7.07
2018-06-20T16:28:29.198Z,2.43
2018-06-20T16:30:58.210Z,5.20
2018-06-20T16:33:27.132Z,3.37
2018-06-20T16:35:56.257Z,5.30
2018-06-20T16:38:25.192Z,4.90
2018-06-20T16:40:54.254Z,3.93
2018-06-20T16:43:23.294Z,3.17
2018-06-20T16:45:52.363Z,4.87
2018-06-20T16:48:21.379Z,2.33
2018-06-20T16:50:50.595Z,2.70
2018-06-20T16:53:19.572Z,3.67
2018-06-20T16:55:48.306Z,3.03
2018-06-20T16:58:17.022Z,5.33
2018-06-20T17:00:45.997Z,2.37
2018-06-20T17:03:15.046Z,4.77
2018-06-20T17:05:44.122Z,7.93
2018-06-20T17:08:13.131Z,2.53
2018-06-20T17:10:42.203Z,5.80
2018-06-20T17:13:11.311Z,2.73
2018-06-20T17:15:40.454Z,4.83
2018-06-20T17:18:09.463Z,3.73
2018-06-20T17:20:38.628Z,2.87
2018-06-20T17:23:07.542Z,4.17
2018-06-20T17:25:36.586Z,5.87
2018-06-20T17:28:05.761Z,5.97
2018-06-20T17:30:34.833Z,3.60
2018-06-20T17:33:03.827Z,5.03
2018-06-20T17:35:32.877Z,5.33
2018-06-20T17:38:01.945Z,4.23
2018-06-20T17:40:30.913Z,3.73
2018-06-20T17:42:59.657Z,2.70
2018-06-20T17:45:28.534Z,5.57
2018-06-20T17:47:57.462Z,5.07
2018-06-20T17:50:26.510Z,6.80
2018-06-20T17:52:55.568Z,7.20
2018-06-20T17:55:24.644Z,4.20
2018-06-20T17:57:53.756Z,5.20
2018-06-20T18:00:22.745Z,4.47
2018-06-20T18:02:51.728Z,4.80
2018-06-20T18:05:20.701Z,5.73
2018-06-20T18:07:49.645Z,4.43
2018-06-20T18:10:18.642Z,5.47
2018-06-20T18:12:47.599Z,4.77
2018-06-20T18:15:16.556Z,5.10
2018-06-20T18:17:45.797Z,4.00
2018-06-20T18:20:16.310Z,5.60
2018-06-20T18:22:45.562Z,5.73
2018-06-20T18:25:14.523Z,6.90
2018-06-20T18:27:43.535Z,4.27
2018-06-20T18:30:12.748Z,5.90
2018-06-20T18:32:41.732Z,3.97
2018-06-20T18:35:10.696Z,4.40
2018-06-20T18:37:39.670Z,4.93
2018-06-20T18:40:08.414Z,8.87
2018-06-20T18:42:37.361Z,4.13
2018-06-20T18:45:06.350Z,4.93
2018-06-20T18:47:35.451Z,4.03
2018-06-20T18:50:04.223Z,5.90
2018-06-20T18:52:33.008Z,3.67
2018-06-20T18:55:01.978Z,3.83
2018-06-20T18:57:30.865Z,5.87
2018-06-20T19:00:00.062Z,5.57
2018-06-20T19:02:29.072Z,3.70
2018-06-20T19:04:58.225Z,6.03
2018-06-20T19:07:26.885Z,4.93
2018-06-20T19:09:55.425Z,3.90
2018-06-20T19:12:23.929Z,6.07
2018-06-20T19:14:52.395Z,5.00
2018-06-20T19:17:21.308Z,5.33
2018-06-20T19:19:50.322Z,10.20
2018-06-20T19:22:19.201Z,4.50
2018-06-20T19:24:47.887Z,2.80
2018-06-20T19:27:16.692Z,6.00
2018-06-20T19:29:45.397Z,4.23
2018-06-20T19:32:14.252Z,5.97
2018-06-20T19:34:44.351Z,5.53
2018-06-20T19:37:13.310Z,4.97
2018-06-20T19:39:42.254Z,3.67
2018-06-20T19:42:11.212Z,5.63
2018-06-20T19:44:40.277Z,7.30
2018-06-20T19:47:09.255Z,4.37
2018-06-20T19:49:38.266Z,6.80
2018-06-20T19:52:07.237Z,8.40
2018-06-20T19:54:36.488Z,7.33
2018-06-20T19:57:05.497Z,5.83
2018-06-20T19:59:34.587Z,5.83
2018-06-20T20:02:03.679Z,4.73
2018-06-20T20:04:32.606Z,6.67
2018-06-20T20:07:01.571Z,7.30
2018-06-20T20:09:30.508Z,6.43
2018-06-20T20:11:59.478Z,8.80
2018-06-20T20:14:28.422Z,4.77
2018-06-20T20:16:57.394Z,9.77
2018-06-20T20:19:26.421Z,4.73
2018-06-20T20:21:55.387Z,5.03
2018-06-20T20:24:24.739Z,9.20
2018-06-20T20:26:53.718Z,5.03
2018-06-20T20:29:22.754Z,4.87
2018-06-20T20:31:51.694Z,6.37
2018-06-20T20:34:20.393Z,5.93
2018-06-20T20:36:49.318Z,10.43
2018-06-20T20:39:18.369Z,7.47
2018-06-20T20:41:47.236Z,6.73
2018-06-20T20:44:16.300Z,7.70
2018-06-20T20:46:45.302Z,4.27
2018-06-20T20:49:14.304Z,4.33
2018-06-20T20:51:50.246Z,8.57
2018-06-20T20:54:32.627Z,4.57
2018-06-20T20:57:02.858Z,5.60
2018-06-20T20:59:37.913Z,5.37
2018-06-20T21:02:08.750Z,5.73
2018-06-20T21:04:37.828Z,6.03
2018-06-20T21:07:06.877Z,10.23
2018-06-20T21:09:35.946Z,5.13
2018-06-20T21:12:05.201Z,5.83
2018-06-20T21:14:34.143Z,6.37
2018-06-20T21:17:03.149Z,9.43
2018-06-20T21:19:32.240Z,4.67
2018-06-20T21:22:01.222Z,6.27
2018-06-20T21:24:30.136Z,5.63
2018-06-20T21:26:59.270Z,8.53
2018-06-20T21:29:28.210Z,8.23
2018-06-20T21:31:57.203Z,5.07
2018-06-20T21:34:26.291Z,7.07
2018-06-20T21:36:55.921Z,8.27
2018-06-20T21:39:24.989Z,11.00
2018-06-20T21:41:53.663Z,11.10
2018-06-20T21:44:22.461Z,6.13
2018-06-20T21:46:51.430Z,8.37
2018-06-20T21:49:20.407Z,4.53
2018-06-20T21:51:49.464Z,5.93
2018-06-20T21:54:18.410Z,8.97
2018-06-20T21:56:47.133Z,12.40
2018-06-20T21:59:15.838Z,6.83
2018-06-20T22:01:44.836Z,4.27
2018-06-20T22:04:13.748Z,5.10
2018-06-20T22:06:42.737Z,7.47
2018-06-20T22:09:11.690Z,5.30
2018-06-20T22:11:40.638Z,4.63
2018-06-20T22:14:09.596Z,7.33
2018-06-20T22:16:38.551Z,5.67
2018-06-20T22:19:07.628Z,5.03
2018-06-20T22:21:36.543Z,7.10
2018-06-20T22:24:05.978Z,5.97
2018-06-20T22:26:35.018Z,7.10
2018-06-20T22:29:04.001Z,8.93
2018-06-20T22:31:32.956Z,6.87
2018-06-20T22:34:01.991Z,5.07
2018-06-20T22:36:30.954Z,6.43
2018-06-20T22:38:59.854Z,8.23
2018-06-20T22:41:29.051Z,5.03
2018-06-20T22:43:58.123Z,10.33
2018-06-20T22:46:27.029Z,6.33
2018-06-20T22:48:56.141Z,4.53
2018-06-20T22:51:25.178Z,7.37
2018-06-20T22:53:54.221Z,6.90
2018-06-20T22:56:23.335Z,6.47
2018-06-20T22:58:52.553Z,7.53
2018-06-20T23:01:21.472Z,7.10
2018-06-20T23:03:51.094Z,7.07
2018-06-20T23:06:20.005Z,6.00
2018-06-20T23:08:49.098Z,9.17
2018-06-20T23:11:18.061Z,7.27
2018-06-20T23:13:46.769Z,8.10
2018-06-20T23:16:15.524Z,6.83
2018-06-20T23:18:44.610Z,5.07
2018-06-20T23:21:13.570Z,6.10
2018-06-20T23:23:42.605Z,6.67
2018-06-20T23:26:11.589Z,9.37
2018-06-20T23:28:40.555Z,7.63
2018-06-20T23:31:09.522Z,6.37
2018-06-20T23:33:38.434Z,7.50
2018-06-20T23:36:07.361Z,8.13
2018-06-20T23:38:36.278Z,6.60
2018-06-20T23:41:05.395Z,9.20
2018-06-20T23:43:34.303Z,7.63
2018-06-20T23:46:03.434Z,8.80
2018-06-20T23:48:32.658Z,11.10
2018-06-20T23:51:01.577Z,6.77
2018-06-20T23:53:30.521Z,8.83
2018-06-20T23:55:59.714Z,7.63
2018-06-20T23:58:28.638Z,7.13
